Time;durP1;ratioP1;P1;durP2;ratioP2;P2;SDS_P1;SDS_P2;PMS_P1;PMS_P2;Temp;Humidity;BMP_temperature;BMP_pressure;BME280_temperature;BME280_humidity;BME280_pressure;Samples;Min_cycle;Max_cycle;Signal;HPM_P1;HPM_P2
2021/05/07 00:00:24;;;;;;;4.17;1.00;;;14.00;99.90;;;;;;5020708;28;20574;-90
2021/05/07 00:02:57;;;;;;;4.00;1.10;;;14.00;99.90;;;;;;5034591;28;20360;-90
2021/05/07 00:05:29;;;;;;;3.33;1.20;;;13.90;99.90;;;;;;5018083;28;20213;-90
2021/05/07 00:08:00;;;;;;;3.47;1.03;;;13.90;99.90;;;;;;5035505;28;20287;-90
2021/05/07 00:10:31;;;;;;;2.13;0.97;;;14.00;99.90;;;;;;5036155;28;20274;-90
2021/05/07 00:13:02;;;;;;;3.03;1.00;;;13.90;99.90;;;;;;5035460;28;20295;-90
2021/05/07 00:15:33;;;;;;;7.20;1.33;;;14.00;99.90;;;;;;5035011;28;20205;-90
2021/05/07 00:18:06;;;;;;;4.67;1.10;;;14.00;99.90;;;;;;5037971;28;20231;-90
2021/05/07 00:20:36;;;;;;;5.97;1.40;;;14.00;99.90;;;;;;5035623;28;20212;-90
2021/05/07 00:23:06;;;;;;;7.20;2.03;;;14.00;99.90;;;;;;5035545;28;20229;-91
2021/05/07 00:25:36;;;;;;;6.67;1.20;;;14.10;99.90;;;;;;5036762;28;20254;-90
2021/05/07 00:28:07;;;;;;;5.53;1.13;;;14.00;99.90;;;;;;5035067;28;20228;-90
2021/05/07 00:30:39;;;;;;;4.40;0.90;;;14.00;99.90;;;;;;5017293;28;20351;-90
2021/05/07 00:33:11;;;;;;;5.37;1.37;;;13.90;99.90;;;;;;5038609;28;20240;-90
2021/05/07 00:35:41;;;;;;;4.37;0.90;;;13.90;99.90;;;;;;5036574;28;20216;-92
2021/05/07 00:38:11;;;;;;;4.43;1.00;;;13.80;99.90;;;;;;5049952;28;20239;-91
2021/05/07 00:40:42;;;;;;;5.97;0.93;;;13.80;99.90;;;;;;5050783;28;20197;-88
2021/05/07 00:43:12;;;;;;;4.10;1.27;;;13.70;99.90;;;;;;5023444;28;20233;-90
2021/05/07 00:45:43;;;;;;;5.67;1.53;;;13.80;99.90;;;;;;5019031;28;20213;-89
2021/05/07 00:48:16;;;;;;;3.43;0.90;;;13.90;99.90;;;;;;5016797;28;20256;-89
2021/05/07 00:50:46;;;;;;;3.63;0.97;;;13.80;99.90;;;;;;5016359;28;20300;-88
2021/05/07 00:53:19;;;;;;;4.80;1.17;;;14.10;99.90;;;;;;5014704;28;20324;-88
2021/05/07 00:55:50;;;;;;;4.83;0.80;;;14.50;99.90;;;;;;5014024;28;20250;-90
2021/05/07 00:58:22;;;;;;;5.23;1.00;;;14.50;99.90;;;;;;5015395;28;20210;-89
2021/05/07 01:00:54;;;;;;;4.53;1.20;;;14.40;99.90;;;;;;5028070;28;20257;-89
2021/05/07 01:03:27;;;;;;;7.13;1.17;;;14.20;99.90;;;;;;5036164;28;20217;-89
2021/05/07 01:05:58;;;;;;;2.83;0.90;;;14.30;99.90;;;;;;5035224;28;20297;-90
2021/05/07 01:08:29;;;;;;;3.20;1.00;;;14.40;99.90;;;;;;5019883;28;20226;-90
2021/05/07 01:11:00;;;;;;;2.60;0.97;;;14.50;99.90;;;;;;5017641;28;20232;-90
2021/05/07 01:13:32;;;;;;;4.47;0.90;;;14.50;99.90;;;;;;5015213;28;20219;-90
2021/05/07 01:16:07;;;;;;;6.27;1.00;;;14.20;99.90;;;;;;5014648;28;20209;-90
2021/05/07 01:18:38;;;;;;;6.70;1.00;;;14.30;99.90;;;;;;5022716;28;20279;-90
2021/05/07 01:21:11;;;;;;;4.97;1.00;;;14.20;99.90;;;;;;5035226;28;20208;-90
2021/05/07 01:23:43;;;;;;;3.87;0.97;;;14.30;99.90;;;;;;5017981;28;20205;-92
2021/05/07 01:26:14;;;;;;;4.67;1.17;;;14.50;99.90;;;;;;5035735;28;20205;-90
2021/05/07 01:28:45;;;;;;;3.07;0.73;;;14.50;99.90;;;;;;5039068;28;20212;-89
2021/05/07 01:31:16;;;;;;;4.17;0.97;;;14.40;99.90;;;;;;5040567;28;20213;-90
2021/05/07 01:33:47;;;;;;;4.40;0.83;;;14.30;99.90;;;;;;5036438;28;20235;-89
2021/05/07 01:36:20;;;;;;;2.20;0.43;;;14.30;99.90;;;;;;5037429;28;20284;-89
2021/05/07 01:38:51;;;;;;;1.40;0.50;;;14.20;99.90;;;;;;5038242;28;20292;-88
2021/05/07 01:41:22;;;;;;;3.43;0.70;;;14.30;99.90;;;;;;5020140;28;20209;-90
2021/05/07 01:43:53;;;;;;;1.87;0.60;;;14.30;99.90;;;;;;5037201;28;20208;-90
2021/05/07 01:46:24;;;;;;;2.93;0.60;;;14.40;99.90;;;;;;5039586;28;20288;-88
2021/05/07 01:48:56;;;;;;;1.20;0.47;;;14.70;99.90;;;;;;5037732;28;20205;-88
2021/05/07 01:51:29;;;;;;;3.00;0.60;;;14.50;99.90;;;;;;5037005;28;20209;-88
2021/05/07 01:54:01;;;;;;;2.93;0.70;;;14.30;99.90;;;;;;5019257;28;20204;-87
2021/05/07 01:56:32;;;;;;;1.53;0.90;;;15.00;99.90;;;;;;5036317;28;20205;-86
2021/05/07 01:59:03;;;;;;;0.67;0.37;;;15.40;99.90;;;;;;5035997;28;20672;-86
2021/05/07 02:01:34;;;;;;;9.20;1.13;;;15.30;99.90;;;;;;5035620;28;20229;-88
2021/05/07 02:04:06;;;;;;;1.87;0.43;;;15.10;99.90;;;;;;5035772;28;20201;-89
2021/05/07 02:06:38;;;;;;;15.37;1.60;;;14.70;99.90;;;;;;5038759;28;20303;-88
2021/05/07 02:09:09;;;;;;;3.60;0.63;;;14.70;99.90;;;;;;5038606;28;20573;-90
2021/05/07 02:11:41;;;;;;;2.03;0.77;;;14.50;99.90;;;;;;5036351;28;20307;-90
2021/05/07 02:14:12;;;;;;;2.90;0.50;;;14.40;99.90;;;;;;5035717;28;20215;-90
2021/05/07 02:16:43;;;;;;;2.03;0.43;;;14.10;99.90;;;;;;5004122;28;20205;-90
2021/05/07 02:19:14;;;;;;;1.87;0.40;;;13.80;99.90;;;;;;5036294;28;20291;-90
2021/05/07 02:21:46;;;;;;;2.63;0.60;;;13.70;99.90;;;;;;5036300;28;20593;-90
2021/05/07 02:24:17;;;;;;;0.97;0.50;;;13.70;99.90;;;;;;5035823;28;20308;-90
2021/05/07 02:26:48;;;;;;;2.53;0.60;;;13.70;99.90;;;;;;5036950;28;20227;-90
2021/05/07 02:29:19;;;;;;;1.47;0.57;;;13.70;99.90;;;;;;5036739;28;20211;-90
2021/05/07 02:31:50;;;;;;;2.73;0.50;;;13.90;99.90;;;;;;5036206;28;20665;-90
2021/05/07 02:34:22;;;;;;;1.87;0.40;;;13.80;99.90;;;;;;5039705;28;20205;-90
2021/05/07 02:36:55;;;;;;;2.77;0.80;;;13.70;99.90;;;;;;5038713;28;20595;-91
2021/05/07 02:39:26;;;;;;;1.03;0.40;;;13.80;99.90;;;;;;5051469;28;20215;-91
2021/05/07 02:42:00;;;;;;;2.57;1.00;;;13.60;99.90;;;;;;5056736;28;20236;-91
2021/05/07 02:44:31;;;;;;;1.47;0.53;;;13.70;99.90;;;;;;5055327;28;20212;-91
2021/05/07 02:47:04;;;;;;;4.50;0.77;;;13.50;99.90;;;;;;5055847;28;20208;-91
2021/05/07 02:49:36;;;;;;;1.87;0.47;;;13.40;99.90;;;;;;5064355;28;20276;-91
2021/05/07 02:52:11;;;;;;;2.07;0.40;;;13.30;99.90;;;;;;5060340;28;20219;-90
2021/05/07 02:54:43;;;;;;;1.77;0.60;;;13.20;99.90;;;;;;5060640;28;20272;-90
2021/05/07 02:57:15;;;;;;;1.00;0.40;;;13.10;99.90;;;;;;5058068;28;20205;-90
2021/05/07 02:59:45;;;;;;;1.87;0.40;;;12.90;99.90;;;;;;5041516;28;20287;-90
2021/05/07 03:02:17;;;;;;;2.77;0.40;;;12.80;99.90;;;;;;5043762;28;20238;-90
2021/05/07 03:04:49;;;;;;;2.87;0.60;;;12.60;99.90;;;;;;5041914;28;20205;-91
2021/05/07 03:07:23;;;;;;;1.43;0.40;;;12.50;99.90;;;;;;5038645;28;20212;-90
2021/05/07 03:09:56;;;;;;;1.80;0.40;;;12.40;99.90;;;;;;5034836;28;20200;-90
2021/05/07 03:12:30;;;;;;;3.37;0.63;;;12.30;99.90;;;;;;5045985;28;20266;-89
2021/05/07 03:15:01;;;;;;;2.30;0.50;;;12.10;99.90;;;;;;5026258;28;20283;-91
2021/05/07 03:17:33;;;;;;;4.33;0.40;;;12.10;99.90;;;;;;5038255;28;20207;-89
2021/05/07 03:20:05;;;;;;;2.33;0.40;;;12.00;99.90;;;;;;5039596;28;20216;-90
2021/05/07 03:22:39;;;;;;;1.83;0.33;;;12.00;99.90;;;;;;5032993;28;20229;-91
2021/05/07 03:25:11;;;;;;;2.70;0.60;;;11.80;99.90;;;;;;5055379;28;20313;-90
2021/05/07 03:27:42;;;;;;;1.00;0.40;;;11.70;99.90;;;;;;5054374;28;20247;-92
2021/05/07 03:30:14;;;;;;;2.43;0.37;;;11.70;99.90;;;;;;5048592;28;20269;-90
2021/05/07 03:32:46;;;;;;;2.70;0.40;;;11.60;99.90;;;;;;5048640;28;20212;-90
2021/05/07 03:35:20;;;;;;;4.50;0.30;;;11.50;99.90;;;;;;5055174;28;20231;-90
2021/05/07 03:37:53;;;;;;;1.70;0.30;;;11.50;99.90;;;;;;5054810;28;20242;-91
2021/05/07 03:40:24;;;;;;;1.20;0.20;;;11.40;99.90;;;;;;5056405;28;20208;-91
2021/05/07 03:42:55;;;;;;;3.53;0.63;;;11.30;99.90;;;;;;5055114;28;20266;-91
2021/05/07 03:45:26;;;;;;;1.00;0.40;;;11.30;99.90;;;;;;5055048;28;20252;-91
2021/05/07 03:47:57;;;;;;;3.23;0.70;;;11.20;99.90;;;;;;5054753;28;20207;-90
2021/05/07 03:50:28;;;;;;;1.80;0.40;;;11.20;99.90;;;;;;5054526;28;20216;-90
2021/05/07 03:53:01;;;;;;;1.93;0.40;;;11.20;99.90;;;;;;5037775;28;20212;-89
2021/05/07 03:55:32;;;;;;;4.63;0.50;;;11.10;99.90;;;;;;5037766;28;20204;-89
2021/05/07 03:58:03;;;;;;;2.80;0.47;;;11.00;99.90;;;;;;5054063;28;20668;-88
2021/05/07 04:00:35;;;;;;;3.40;0.83;;;11.00;99.90;;;;;;5054531;28;20325;-89
2021/05/07 04:03:07;;;;;;;2.60;0.60;;;11.00;99.90;;;;;;5054837;28;20236;-89
2021/05/07 04:05:39;;;;;;;2.17;0.57;;;10.90;99.90;;;;;;5054992;28;20282;-89
2021/05/07 04:08:14;;;;;;;2.30;0.53;;;10.90;99.90;;;;;;5048581;28;20302;-89
2021/05/07 04:10:48;;;;;;;2.33;0.60;;;10.80;99.90;;;;;;5034973;28;20205;-89
2021/05/07 04:13:35;;;;;;;0.77;0.57;;;10.80;99.90;;;;;;5018139;28;20711;-89
2021/05/07 04:16:07;;;;;;;3.20;0.53;;;10.80;99.90;;;;;;5035192;28;20212;-89
2021/05/07 04:18:42;;;;;;;0.30;0.30;;;10.70;99.90;;;;;;5017424;28;20215;-90
2021/05/07 04:21:13;;;;;;;1.73;0.50;;;10.70;99.90;;;;;;5034659;28;20211;-90
2021/05/07 04:23:46;;;;;;;2.57;0.60;;;10.60;99.90;;;;;;5034220;28;20685;-90
2021/05/07 04:26:17;;;;;;;2.60;0.60;;;10.60;99.90;;;;;;5034410;28;20304;-90
2021/05/07 04:28:48;;;;;;;3.60;0.47;;;10.60;99.90;;;;;;5033602;28;20275;-90
2021/05/07 04:31:19;;;;;;;1.90;0.60;;;10.50;99.90;;;;;;5034437;28;20551;-90
2021/05/07 04:33:53;;;;;;;4.80;0.70;;;10.50;99.90;;;;;;5017708;28;20209;-90
2021/05/07 04:36:24;;;;;;;4.10;0.60;;;10.60;99.90;;;;;;5018289;28;20209;-90
2021/05/07 04:38:57;;;;;;;3.87;0.80;;;10.50;99.90;;;;;;5033643;28;20235;-90
2021/05/07 04:41:28;;;;;;;3.50;0.80;;;10.40;99.90;;;;;;5034381;28;20212;-90
2021/05/07 04:44:00;;;;;;;3.07;0.70;;;10.40;99.90;;;;;;5034080;28;20232;-90
2021/05/07 04:46:31;;;;;;;2.17;0.77;;;10.40;99.90;;;;;;5034351;28;20676;-91
2021/05/07 04:49:02;;;;;;;4.57;0.73;;;10.30;99.90;;;;;;5034659;28;20219;-91
2021/05/07 04:51:33;;;;;;;1.33;0.50;;;10.30;99.90;;;;;;5035538;28;20303;-90
2021/05/07 04:54:05;;;;;;;1.73;0.50;;;10.30;99.90;;;;;;5035414;28;20276;-90
2021/05/07 04:56:35;;;;;;;3.30;0.70;;;10.30;99.90;;;;;;5035855;28;20196;-91
2021/05/07 04:59:06;;;;;;;2.60;0.60;;;10.20;99.90;;;;;;5035985;28;20222;-91
2021/05/07 05:01:37;;;;;;;4.57;1.20;;;10.20;99.90;;;;;;5035893;28;20287;-90
2021/05/07 05:04:10;;;;;;;4.70;0.83;;;10.20;99.90;;;;;;5041249;28;20288;-90
2021/05/07 05:06:41;;;;;;;2.90;0.80;;;10.10;99.90;;;;;;5038959;28;20201;-90
2021/05/07 05:09:13;;;;;;;4.00;0.80;;;10.10;99.90;;;;;;5042865;28;20221;-89
2021/05/07 05:11:45;;;;;;;3.80;0.80;;;10.10;99.90;;;;;;5019387;28;20239;-90
2021/05/07 05:14:16;;;;;;;4.40;0.93;;;10.10;99.90;;;;;;5018468;28;20208;-90
2021/05/07 05:16:47;;;;;;;2.70;0.63;;;10.00;99.90;;;;;;5018984;28;20292;-90
2021/05/07 05:19:17;;;;;;;3.90;0.77;;;10.00;99.90;;;;;;5018853;28;20240;-90
2021/05/07 05:21:48;;;;;;;4.20;1.00;;;9.90;99.90;;;;;;5018518;28;20213;-89
2021/05/07 05:24:21;;;;;;;3.17;1.00;;;9.80;99.90;;;;;;5018636;28;20284;-90
2021/05/07 05:26:53;;;;;;;7.07;1.40;;;9.80;99.90;;;;;;5017389;28;20212;-90
2021/05/07 05:29:28;;;;;;;3.37;1.00;;;9.70;99.90;;;;;;5019402;28;20213;-90
2021/05/07 05:32:01;;;;;;;2.83;0.60;;;9.70;99.90;;;;;;5018173;28;20340;-90
2021/05/07 05:34:33;;;;;;;4.00;1.17;;;9.70;99.90;;;;;;5019135;28;20212;-90
2021/05/07 05:37:05;;;;;;;2.73;0.60;;;9.60;99.90;;;;;;5018432;28;20235;-90
2021/05/07 05:39:38;;;;;;;4.60;0.80;;;9.60;99.90;;;;;;5018536;28;20221;-91
2021/05/07 05:42:29;;;;;;;4.17;1.00;;;9.60;99.90;;;;;;5004408;28;20237;-91
2021/05/07 05:45:01;;;;;;;4.80;0.90;;;9.70;99.90;;;;;;5018908;28;20201;-90
2021/05/07 05:47:32;;;;;;;4.83;0.97;;;9.60;99.90;;;;;;5036905;28;20275;-90
2021/05/07 05:50:03;;;;;;;3.33;1.07;;;9.70;99.90;;;;;;5035337;28;20655;-90
2021/05/07 05:52:35;;;;;;;5.77;0.97;;;9.70;99.90;;;;;;5019851;28;20304;-90
2021/05/07 05:55:10;;;;;;;4.43;1.17;;;9.70;99.90;;;;;;4987078;28;20216;-90
2021/05/07 05:57:41;;;;;;;6.27;1.20;;;9.70;99.90;;;;;;5018184;28;20208;-90
2021/05/07 06:00:15;;;;;;;5.63;1.03;;;9.70;99.90;;;;;;5035067;28;20213;-90
2021/05/07 06:02:47;;;;;;;4.70;1.10;;;9.80;99.90;;;;;;5071118;28;20205;-90
2021/05/07 06:05:20;;;;;;;2.90;1.17;;;9.80;99.90;;;;;;5048533;28;20569;-90
2021/05/07 06:07:51;;;;;;;2.53;0.67;;;9.70;99.90;;;;;;5055471;28;20263;-90
2021/05/07 06:10:24;;;;;;;4.40;1.07;;;9.70;99.90;;;;;;5057809;28;20261;-90
2021/05/07 06:12:55;;;;;;;3.33;1.00;;;9.70;99.90;;;;;;5057681;28;20272;-90
2021/05/07 06:15:27;;;;;;;6.00;1.10;;;9.70;99.90;;;;;;5057135;28;20257;-90
2021/05/07 06:17:58;;;;;;;5.20;0.87;;;9.60;99.90;;;;;;5049610;28;20215;-90
2021/05/07 06:20:29;;;;;;;3.87;0.80;;;9.60;99.90;;;;;;5040107;28;20221;-90
2021/05/07 06:23:01;;;;;;;6.07;1.10;;;9.60;99.90;;;;;;5023357;28;20263;-90
2021/05/07 06:25:34;;;;;;;4.10;1.30;;;9.60;99.90;;;;;;5020495;28;20295;-90
2021/05/07 06:28:06;;;;;;;4.93;1.40;;;9.70;99.90;;;;;;5036849;28;20226;-90
2021/05/07 06:30:37;;;;;;;4.07;1.00;;;9.70;99.90;;;;;;5037537;28;20217;-91
2021/05/07 06:33:08;;;;;;;5.67;1.30;;;9.60;99.90;;;;;;5037526;28;20222;-90
2021/05/07 06:35:38;;;;;;;2.77;1.43;;;9.60;99.90;;;;;;5037980;28;20303;-90
2021/05/07 06:38:13;;;;;;;4.63;1.10;;;9.60;99.90;;;;;;5040848;28;20219;-91
2021/05/07 06:40:45;;;;;;;4.47;1.10;;;9.60;99.90;;;;;;5043860;28;20265;-90
2021/05/07 06:43:16;;;;;;;8.07;1.37;;;9.60;99.90;;;;;;5026105;28;20302;-90
2021/05/07 06:45:47;;;;;;;7.30;1.77;;;9.60;99.90;;;;;;5037456;28;20212;-90
2021/05/07 06:48:18;;;;;;;6.50;1.07;;;9.50;99.90;;;;;;5035894;28;20311;-89
2021/05/07 06:50:49;;;;;;;3.70;1.40;;;9.50;99.90;;;;;;5035753;28;20211;-90
2021/05/07 06:53:20;;;;;;;3.50;1.10;;;9.40;99.90;;;;;;5019360;28;20205;-90
2021/05/07 06:55:53;;;;;;;6.23;1.30;;;9.40;99.90;;;;;;5036048;28;20205;-89
2021/05/07 06:58:34;;;;;;;4.53;1.20;;;9.40;99.90;;;;;;5035909;28;20679;-89
2021/05/07 07:01:05;;;;;;;3.23;1.27;;;9.30;99.90;;;;;;5036075;28;20296;-89
2021/05/07 07:03:36;;;;;;;7.33;1.50;;;9.30;99.90;;;;;;5035028;28;20282;-89
2021/05/07 07:06:08;;;;;;;3.90;1.10;;;9.20;99.90;;;;;;5018874;28;20222;-90
2021/05/07 07:08:39;;;;;;;4.80;1.13;;;9.20;99.90;;;;;;5034748;28;20216;-89
2021/05/07 07:11:12;;;;;;;8.23;1.40;;;9.20;99.90;;;;;;5035654;28;20212;-89
2021/05/07 07:13:43;;;;;;;7.33;1.40;;;9.20;99.90;;;;;;5036651;28;20222;-90
2021/05/07 07:16:16;;;;;;;4.97;1.30;;;9.20;99.90;;;;;;5035917;28;20207;-89
2021/05/07 07:18:48;;;;;;;7.20;1.70;;;9.20;99.90;;;;;;5035326;28;20265;-90
2021/05/07 07:21:18;;;;;;;5.47;1.33;;;9.10;99.90;;;;;;5035840;28;20215;-90
2021/05/07 07:23:48;;;;;;;7.77;1.37;;;9.10;99.90;;;;;;5034654;28;20247;-90
2021/05/07 07:26:21;;;;;;;7.63;1.40;;;9.10;99.90;;;;;;5035512;28;20242;-90
2021/05/07 07:28:53;;;;;;;6.67;1.57;;;9.10;99.90;;;;;;5034814;28;20287;-90
2021/05/07 07:31:23;;;;;;;5.30;1.17;;;9.00;99.90;;;;;;5035755;28;20219;-90
2021/05/07 07:33:53;;;;;;;7.63;1.37;;;9.00;99.90;;;;;;5035633;28;20680;-90
2021/05/07 07:36:24;;;;;;;4.43;1.23;;;9.00;99.90;;;;;;5035142;28;20677;-90
2021/05/07 07:38:54;;;;;;;6.00;1.50;;;9.10;99.90;;;;;;5034535;28;20301;-90
2021/05/07 07:41:33;;;;;;;7.10;1.80;;;9.00;99.90;;;;;;5036189;28;20215;-90
2021/05/07 07:44:05;;;;;;;4.47;1.23;;;9.00;99.90;;;;;;5035041;28;20258;-90
2021/05/07 07:46:37;;;;;;;5.33;1.00;;;9.00;99.90;;;;;;5034283;28;20207;-90
2021/05/07 07:49:08;;;;;;;7.07;1.20;;;9.00;99.90;;;;;;5036038;28;20653;-90
2021/05/07 07:51:39;;;;;;;6.37;1.47;;;9.00;99.90;;;;;;5034839;28;20266;-90
2021/05/07 07:54:12;;;;;;;5.33;1.30;;;9.00;99.90;;;;;;5034923;28;20201;-89
2021/05/07 07:56:44;;;;;;;6.33;1.50;;;9.00;99.90;;;;;;5035054;28;20237;-90
2021/05/07 07:59:15;;;;;;;5.70;1.30;;;9.00;99.90;;;;;;5018226;28;20209;-89
2021/05/07 08:01:46;;;;;;;7.40;1.83;;;9.00;99.90;;;;;;5036584;28;20215;-90
2021/05/07 08:04:17;;;;;;;8.83;1.93;;;8.90;99.90;;;;;;5046852;28;20341;-90
2021/05/07 08:06:49;;;;;;;10.57;1.97;;;8.90;99.90;;;;;;5047941;28;20212;-89
2021/05/07 08:09:22;;;;;;;9.93;1.90;;;9.00;99.90;;;;;;5046602;28;20214;-90
2021/05/07 08:11:55;;;;;;;6.70;1.87;;;9.00;99.90;;;;;;5049682;28;20209;-89
2021/05/07 08:14:31;;;;;;;7.37;1.90;;;9.00;99.90;;;;;;5054776;28;20222;-90
2021/05/07 08:17:02;;;;;;;7.93;1.90;;;9.00;99.90;;;;;;5053713;28;20244;-90
2021/05/07 08:19:33;;;;;;;7.73;1.60;;;8.90;99.90;;;;;;5054404;28;20222;-90
2021/05/07 08:22:04;;;;;;;5.90;1.87;;;8.90;99.90;;;;;;5055215;28;20262;-90
2021/05/07 08:24:36;;;;;;;10.60;1.97;;;8.90;99.90;;;;;;5054365;28;20293;-90
2021/05/07 08:27:08;;;;;;;11.67;1.80;;;8.90;99.90;;;;;;5036625;28;20649;-90
2021/05/07 08:29:39;;;;;;;8.50;1.47;;;8.80;99.90;;;;;;5054412;28;20214;-90
2021/05/07 08:32:10;;;;;;;8.53;2.10;;;8.80;99.90;;;;;;5054273;28;20256;-90
2021/05/07 08:34:42;;;;;;;10.13;1.83;;;8.90;99.90;;;;;;5036240;28;20693;-91
2021/05/07 08:37:13;;;;;;;8.17;1.63;;;8.90;99.90;;;;;;5057504;28;20258;-90
2021/05/07 08:39:44;;;;;;;8.67;2.13;;;8.80;99.90;;;;;;5058164;28;20201;-90
2021/05/07 08:42:16;;;;;;;7.17;1.80;;;8.80;99.90;;;;;;5058666;28;20234;-90
2021/05/07 08:44:47;;;;;;;6.37;1.80;;;8.80;99.90;;;;;;5058437;28;20869;-90
2021/05/07 08:47:21;;;;;;;7.43;1.80;;;8.80;99.90;;;;;;5057535;28;20643;-90
2021/05/07 08:49:53;;;;;;;7.03;1.70;;;8.80;99.90;;;;;;5058291;28;20205;-89
2021/05/07 08:52:24;;;;;;;14.07;2.13;;;8.80;99.90;;;;;;5058265;28;20262;-89
2021/05/07 08:54:56;;;;;;;7.07;1.60;;;8.80;99.90;;;;;;5058458;28;20211;-89
2021/05/07 08:57:29;;;;;;;12.73;2.03;;;8.70;99.90;;;;;;5057793;28;20212;-90
2021/05/07 09:00:00;;;;;;;10.77;2.03;;;8.80;99.90;;;;;;5046480;28;20739;-90
2021/05/07 09:02:33;;;;;;;7.77;1.43;;;8.80;99.90;;;;;;5053167;28;20210;-89
2021/05/07 09:05:04;;;;;;;7.43;1.70;;;8.80;99.90;;;;;;5045045;28;20230;-89
2021/05/07 09:07:35;;;;;;;5.70;1.57;;;8.80;99.90;;;;;;5037325;28;20209;-90
2021/05/07 09:10:07;;;;;;;7.77;1.70;;;8.80;99.90;;;;;;5037940;28;20228;-90
2021/05/07 09:12:41;;;;;;;3.63;1.13;;;8.70;99.90;;;;;;5038262;28;20568;-89
2021/05/07 09:15:12;;;;;;;4.60;1.50;;;8.70;99.90;;;;;;5020534;28;20253;-90
2021/05/07 09:17:43;;;;;;;5.90;1.40;;;8.80;99.90;;;;;;5037788;28;20205;-90
2021/05/07 09:20:15;;;;;;;5.27;1.27;;;8.70;99.90;;;;;;5038407;28;20203;-90
2021/05/07 09:22:46;;;;;;;7.33;1.60;;;8.80;99.90;;;;;;5041974;28;20231;-90
2021/05/07 09:25:18;;;;;;;5.43;1.40;;;8.70;99.90;;;;;;5042049;28;20684;-90
2021/05/07 09:27:51;;;;;;;8.20;1.70;;;8.80;99.90;;;;;;5036672;28;20261;-90
2021/05/07 09:30:28;;;;;;;9.53;1.60;;;8.80;99.90;;;;;;5037553;28;20270;-90
2021/05/07 09:33:01;;;;;;;4.20;1.43;;;8.80;99.90;;;;;;5037391;28;20607;-90
2021/05/07 09:35:32;;;;;;;4.63;1.60;;;8.80;99.90;;;;;;5037147;28;20209;-90
2021/05/07 09:38:05;;;;;;;6.63;1.47;;;8.80;99.90;;;;;;5019158;28;20237;-90
2021/05/07 09:40:37;;;;;;;7.40;1.30;;;8.80;99.90;;;;;;5037451;28;20214;-90
2021/05/07 09:43:11;;;;;;;8.13;2.10;;;8.80;99.90;;;;;;5036877;28;20268;-90
2021/05/07 09:45:43;;;;;;;6.83;1.70;;;8.70;99.90;;;;;;5036044;28;20262;-90
2021/05/07 09:48:21;;;;;;;4.37;1.20;;;8.70;99.90;;;;;;5034368;28;20302;-90
2021/05/07 09:50:56;;;;;;;6.40;1.60;;;8.60;99.90;;;;;;5037379;28;20264;-89
2021/05/07 09:53:31;;;;;;;6.77;1.73;;;8.60;99.90;;;;;;5037336;28;20227;-89
2021/05/07 09:56:11;;;;;;;8.70;2.03;;;8.50;99.90;;;;;;5037196;28;20213;-90
2021/05/07 09:58:43;;;;;;;6.90;1.40;;;8.50;99.90;;;;;;5036176;28;20542;-89
2021/05/07 10:01:16;;;;;;;6.33;1.80;;;8.50;99.90;;;;;;5037505;28;20289;-90
2021/05/07 10:03:48;;;;;;;6.90;1.50;;;8.40;99.90;;;;;;5036986;28;20230;-90
2021/05/07 10:06:18;;;;;;;7.27;1.80;;;8.50;99.90;;;;;;5036754;28;20209;-90
2021/05/07 10:08:49;;;;;;;9.77;2.07;;;8.40;99.90;;;;;;5037519;28;20207;-89
2021/05/07 10:11:21;;;;;;;5.80;1.73;;;8.40;99.90;;;;;;5036982;28;20206;-89
2021/05/07 10:13:55;;;;;;;4.70;1.53;;;8.50;99.90;;;;;;5037943;28;20210;-89
2021/05/07 10:16:30;;;;;;;6.43;1.73;;;8.40;99.90;;;;;;5036994;28;20251;-89
2021/05/07 10:19:02;;;;;;;5.90;1.57;;;8.30;99.90;;;;;;5037072;28;20209;-90
2021/05/07 10:21:38;;;;;;;5.47;1.20;;;8.30;99.90;;;;;;5047949;28;20189;-91
2021/05/07 10:24:11;;;;;;;4.27;1.20;;;8.30;99.90;;;;;;5056924;28;20220;-90
2021/05/07 10:26:44;;;;;;;8.10;1.70;;;8.30;99.90;;;;;;5050710;28;20213;-90
2021/05/07 10:29:21;;;;;;;5.57;0.93;;;8.30;99.90;;;;;;5039304;28;20315;-90
2021/05/07 10:31:53;;;;;;;3.43;1.00;;;8.30;99.90;;;;;;5041100;28;20245;-90
2021/05/07 10:34:25;;;;;;;4.17;1.30;;;8.30;99.90;;;;;;5047591;28;20217;-90
2021/05/07 10:37:12;;;;;;;4.77;1.30;;;8.30;99.90;;;;;;5043380;28;20216;-90
2021/05/07 10:39:53;;;;;;;5.13;1.63;;;8.20;99.90;;;;;;5047459;28;20221;-90
2021/05/07 10:42:24;;;;;;;5.90;1.23;;;8.20;99.90;;;;;;5042738;28;20692;-90
2021/05/07 10:44:57;;;;;;;7.00;1.40;;;8.20;99.90;;;;;;5045258;28;20261;-90
2021/05/07 10:47:35;;;;;;;5.43;1.30;;;8.10;99.90;;;;;;5036971;28;20220;-90
2021/05/07 10:50:17;;;;;;;2.83;0.90;;;8.10;99.90;;;;;;5036981;28;20232;-90
2021/05/07 10:52:47;;;;;;;4.73;1.30;;;8.10;99.90;;;;;;5036189;28;20564;-90
2021/05/07 10:55:18;;;;;;;2.63;0.90;;;8.10;99.90;;;;;;5035914;28;20205;-90
2021/05/07 10:57:56;;;;;;;2.33;0.90;;;8.10;99.90;;;;;;5035333;28;20658;-90
2021/05/07 11:00:39;;;;;;;4.80;0.93;;;8.20;99.90;;;;;;5034796;28;20201;-90
2021/05/07 11:03:20;;;;;;;4.80;1.77;;;8.20;99.90;;;;;;5018673;28;20953;-90
2021/05/07 11:05:52;;;;;;;3.23;0.90;;;8.20;99.90;;;;;;5035494;28;20265;-89
2021/05/07 11:08:34;;;;;;;3.63;1.20;;;8.30;99.90;;;;;;5017935;28;20199;-90
2021/05/07 11:11:05;;;;;;;4.70;1.40;;;8.30;99.90;;;;;;5035868;28;20212;-89
2021/05/07 11:13:38;;;;;;;4.30;1.23;;;8.10;99.90;;;;;;5035551;28;20251;-89
2021/05/07 11:16:10;;;;;;;5.17;1.43;;;8.00;99.90;;;;;;5035467;28;20598;-90
2021/05/07 11:18:49;;;;;;;6.93;1.50;;;8.00;99.90;;;;;;5034604;28;20208;-90
2021/05/07 11:21:19;;;;;;;4.93;1.43;;;8.10;99.90;;;;;;5018767;28;20230;-91
2021/05/07 11:24:00;;;;;;;3.33;1.30;;;8.00;99.90;;;;;;5035655;28;20228;-90
2021/05/07 11:26:40;;;;;;;4.67;1.43;;;7.90;99.90;;;;;;5035553;28;20264;-92
2021/05/07 11:29:10;;;;;;;6.37;1.57;;;7.90;99.90;;;;;;5035661;28;20205;-90
2021/05/07 11:31:43;;;;;;;4.10;1.40;;;7.90;99.90;;;;;;5035887;28;20233;-90
2021/05/07 11:34:14;;;;;;;1.63;0.90;;;7.80;99.90;;;;;;5018748;28;20220;-90
2021/05/07 11:36:44;;;;;;;2.57;1.20;;;7.80;99.90;;;;;;5035028;28;20293;-90
2021/05/07 11:39:16;;;;;;;3.43;1.20;;;7.80;99.90;;;;;;5048616;28;20196;-90
2021/05/07 11:41:47;;;;;;;4.33;1.10;;;7.80;99.90;;;;;;5056293;28;20204;-90
2021/05/07 11:44:18;;;;;;;2.50;1.10;;;7.80;99.90;;;;;;5056195;28;20213;-90
2021/05/07 11:47:05;;;;;;;4.53;1.57;;;7.80;99.90;;;;;;5056270;28;20189;-90
2021/05/07 11:49:38;;;;;;;3.70;1.03;;;7.80;99.90;;;;;;5056525;28;20272;-89
2021/05/07 11:52:09;;;;;;;6.50;1.53;;;7.80;99.90;;;;;;5056694;28;20192;-90
2021/05/07 11:54:45;;;;;;;3.87;1.17;;;7.70;99.90;;;;;;5046903;28;20209;-88
2021/05/07 11:57:23;;;;;;;3.27;1.00;;;7.70;99.90;;;;;;5018364;28;20208;-89
2021/05/07 11:59:55;;;;;;;2.97;1.03;;;7.70;99.90;;;;;;5018943;28;20630;-90
2021/05/07 12:02:28;;;;;;;3.40;1.10;;;7.70;99.90;;;;;;5020332;28;20240;-89
2021/05/07 12:05:05;;;;;;;4.23;1.03;;;7.70;99.90;;;;;;5034604;28;20319;-89
2021/05/07 12:07:39;;;;;;;3.80;1.33;;;7.70;99.90;;;;;;5035880;28;20205;-89
2021/05/07 12:10:11;;;;;;;4.53;1.33;;;7.70;99.90;;;;;;5035871;28;20205;-89
2021/05/07 12:12:45;;;;;;;3.27;1.23;;;7.60;99.90;;;;;;5035615;28;20650;-89
2021/05/07 12:15:18;;;;;;;6.00;1.93;;;7.70;99.90;;;;;;5018277;28;20287;-89
2021/05/07 12:17:52;;;;;;;3.30;1.10;;;7.70;99.90;;;;;;5034677;28;20220;-90
2021/05/07 12:20:25;;;;;;;3.93;1.00;;;7.70;99.90;;;;;;5018254;28;20228;-90
2021/05/07 12:22:56;;;;;;;3.87;1.07;;;7.80;99.90;;;;;;5034788;28;20295;-89
2021/05/07 12:25:28;;;;;;;4.33;1.20;;;7.80;99.90;;;;;;5034865;28;20287;-90
2021/05/07 12:27:59;;;;;;;4.63;1.27;;;7.80;99.90;;;;;;5035303;28;20259;-90
2021/05/07 12:30:31;;;;;;;2.80;1.13;;;7.80;99.90;;;;;;5035417;28;20244;-89
2021/05/07 12:33:06;;;;;;;3.47;1.10;;;7.80;99.90;;;;;;5034670;28;20216;-90
2021/05/07 12:35:42;;;;;;;1.13;0.93;;;7.70;99.90;;;;;;5035584;28;20197;-90
2021/05/07 12:38:33;;;;;;;2.37;0.70;;;7.70;99.90;;;;;;5044930;28;20215;-89
2021/05/07 12:41:07;;;;;;;4.83;1.40;;;7.70;99.90;;;;;;5052907;28;20216;-89
2021/05/07 12:43:39;;;;;;;3.50;1.13;;;7.70;99.90;;;;;;5053122;28;20248;-90
2021/05/07 12:46:10;;;;;;;3.20;1.07;;;7.80;99.90;;;;;;5036482;28;20736;-89
2021/05/07 12:49:00;;;;;;;3.37;1.10;;;7.70;99.90;;;;;;5034245;28;20239;-89
2021/05/07 12:51:31;;;;;;;2.73;1.13;;;7.70;99.90;;;;;;5015354;28;20712;-89
2021/05/07 12:54:01;;;;;;;4.00;0.83;;;7.70;99.90;;;;;;5015192;28;20655;-89
2021/05/07 12:56:32;;;;;;;6.17;1.60;;;7.70;99.90;;;;;;4997566;28;20293;-90
2021/05/07 12:59:04;;;;;;;2.90;1.20;;;7.70;99.90;;;;;;5014617;28;20210;-90
2021/05/07 13:01:35;;;;;;;4.00;1.43;;;7.60;99.90;;;;;;5015081;28;20233;-89
2021/05/07 13:04:08;;;;;;;6.37;1.40;;;7.60;99.90;;;;;;5014624;28;20253;-90
2021/05/07 13:06:38;;;;;;;5.60;1.50;;;7.60;99.90;;;;;;5013768;28;20352;-89
2021/05/07 13:09:08;;;;;;;3.00;1.13;;;7.60;99.90;;;;;;5014452;28;20214;-89
2021/05/07 13:11:42;;;;;;;3.00;1.30;;;7.60;99.90;;;;;;5014215;28;20210;-89
2021/05/07 13:14:12;;;;;;;6.47;1.60;;;7.60;99.90;;;;;;5014654;28;20256;-88
2021/05/07 13:16:43;;;;;;;2.50;1.23;;;7.70;99.90;;;;;;5013841;28;20271;-89
2021/05/07 13:19:15;;;;;;;3.17;1.37;;;7.70;99.90;;;;;;5014849;28;20300;-89